createdAt,value
2019-01-15T00:00:53.508Z,62.06
2019-01-15T00:02:03.555Z,61.68
2019-01-15T00:03:13.630Z,61.49
2019-01-15T00:04:23.682Z,61.49
2019-01-15T00:05:33.830Z,61.02
2019-01-15T00:06:43.877Z,61.3
2019-01-15T00:07:53.925Z,61.49
2019-01-15T00:09:03.975Z,61.21
2019-01-15T00:10:14.020Z,61.3
2019-01-15T00:11:24.200Z,62.06
2019-01-15T00:12:34.243Z,61.77
2019-01-15T00:13:44.294Z,62.34
2019-01-15T00:14:54.343Z,61.58
2019-01-15T00:16:04.393Z,62.62
2019-01-15T00:17:14.441Z,62.34
2019-01-15T00:18:24.493Z,62.62
2019-01-15T00:19:34.543Z,62.02
2019-01-15T00:20:44.586Z,62.31
2019-01-15T00:21:54.635Z,62.34
2019-01-15T00:23:04.732Z,62.31
2019-01-15T00:24:15.819Z,62.21
2019-01-15T00:25:25.880Z,62.5
2019-01-15T00:26:35.928Z,62.4
2019-01-15T00:27:45.980Z,62.97
2019-01-15T00:28:56.139Z,63.54
2019-01-15T00:30:06.184Z,62.88
2019-01-15T00:31:17.990Z,62.88
2019-01-15T00:32:28.044Z,63.26
2019-01-15T00:33:38.090Z,63.54
2019-01-15T00:34:48.235Z,64.2
2019-01-15T00:35:58.290Z,64.2
2019-01-15T00:37:08.337Z,64.29
2019-01-15T00:38:18.426Z,63.82
2019-01-15T00:39:28.474Z,64.2
2019-01-15T00:40:38.617Z,63.82
2019-01-15T00:41:48.663Z,64.11
2019-01-15T00:42:58.721Z,64.86
2019-01-15T00:44:08.779Z,65.23
2019-01-15T00:45:18.825Z,65.23
2019-01-15T00:46:28.979Z,65.23
2019-01-15T00:47:38.774Z,65.61
2019-01-15T00:48:48.822Z,66.28
2019-01-15T00:49:58.864Z,66.56
2019-01-15T00:51:08.915Z,65.96
2019-01-15T00:52:19.065Z,65.67
2019-01-15T00:53:29.166Z,65.86
2019-01-15T00:54:39.211Z,66.81
2019-01-15T00:55:49.251Z,67.85
2019-01-15T00:56:59.295Z,68.1
2019-01-15T00:58:09.440Z,68.76
2019-01-15T00:59:19.495Z,69.23
2019-01-15T01:00:29.541Z,69.79
2019-01-15T01:01:39.587Z,70.26
2019-01-15T01:02:49.632Z,69.89
2019-01-15T01:03:59.781Z,69.13
2019-01-15T01:05:09.835Z,69.17
2019-01-15T01:06:19.879Z,69.51
2019-01-15T01:07:29.983Z,69.23
2019-01-15T01:08:39.766Z,70.26
2019-01-15T01:09:49.394Z,69.7
2019-01-15T01:10:59.433Z,69.07
2019-01-15T01:12:09.223Z,69.07
2019-01-15T01:13:25.102Z,68.88
2019-01-15T01:14:35.147Z,69.17
2019-01-15T01:15:45.243Z,68.79
2019-01-15T01:16:55.289Z,69.07
2019-01-15T01:18:05.342Z,69.17
2019-01-15T01:19:15.389Z,69.07
2019-01-15T01:20:25.436Z,69.54
2019-01-15T01:21:35.540Z,69.54
2019-01-15T01:22:45.585Z,69.17
2019-01-15T01:23:55.629Z,69.07
2019-01-15T01:25:05.703Z,69.17
2019-01-15T01:26:15.748Z,69.17
2019-01-15T01:27:25.902Z,69.07
2019-01-15T01:28:35.957Z,69.26
2019-01-15T01:29:46.000Z,69.26
2019-01-15T01:30:56.042Z,69.45
2019-01-15T01:32:06.094Z,68.7
2019-01-15T01:33:16.294Z,68.51
2019-01-15T01:34:26.344Z,68.41
2019-01-15T01:35:36.403Z,68.23
2019-01-15T01:36:46.191Z,67.75
2019-01-15T01:37:56.234Z,68.41
2019-01-15T01:39:06.332Z,68.32
2019-01-15T01:40:16.403Z,68.23
2019-01-15T01:41:26.473Z,68.23
2019-01-15T01:42:36.541Z,67.47
2019-01-15T01:43:46.329Z,67.75
2019-01-15T01:44:56.478Z,68.23
2019-01-15T01:46:06.538Z,68.38
2019-01-15T01:47:16.589Z,68.7
2019-01-15T01:48:26.645Z,68.85
2019-01-15T01:49:36.693Z,68.76
2019-01-15T01:50:46.842Z,68.95
2019-01-15T01:51:56.883Z,69.79
2019-01-15T01:53:06.923Z,69.13
2019-01-15T01:54:16.968Z,69.7
2019-01-15T01:55:27.016Z,69.79
2019-01-15T01:56:37.110Z,69.98
2019-01-15T01:57:47.155Z,70.07
2019-01-15T01:58:57.199Z,70.64
2019-01-15T02:00:07.246Z,70.64
2019-01-15T02:01:17.034Z,70.73
2019-01-15T02:02:27.177Z,70.36
2019-01-15T02:03:37.218Z,70.54
2019-01-15T02:04:47.259Z,71.21
2019-01-15T02:05:57.304Z,71.11
2019-01-15T02:07:07.352Z,71.11
2019-01-15T02:08:17.494Z,71.58
2019-01-15T02:09:27.331Z,71.58
2019-01-15T02:10:37.377Z,71.77
2019-01-15T02:11:47.423Z,71.11
2019-01-15T02:12:57.465Z,71.11
2019-01-15T02:14:07.612Z,71.21
2019-01-15T02:15:17.664Z,71.21
2019-01-15T02:16:27.728Z,71.21
2019-01-15T02:17:37.773Z,71.21
2019-01-15T02:18:47.812Z,71.11
2019-01-15T02:19:57.909Z,71.11
2019-01-15T02:21:07.960Z,70.92
2019-01-15T02:22:18.019Z,71.21
2019-01-15T02:23:28.123Z,71.11
2019-01-15T02:24:38.166Z,70.45
2019-01-15T02:25:48.317Z,70.73
2019-01-15T02:26:58.360Z,70.54
2019-01-15T02:28:08.417Z,70.36
2019-01-15T02:29:18.466Z,70.54
2019-01-15T02:30:28.554Z,70.73
2019-01-15T02:31:38.708Z,70.92
2019-01-15T02:32:48.760Z,70.83
2019-01-15T02:33:58.809Z,71.11
2019-01-15T02:35:08.861Z,71.77
2019-01-15T02:36:19.013Z,71.58
2019-01-15T02:37:29.115Z,72.81
2019-01-15T02:38:39.162Z,72.62
2019-01-15T02:39:49.213Z,73.1
2019-01-15T02:40:59.272Z,73.1
2019-01-15T02:42:09.336Z,73
2019-01-15T02:43:19.497Z,73
2019-01-15T02:44:29.546Z,72.91
2019-01-15T02:45:39.593Z,72.06
2019-01-15T02:46:49.643Z,72.44
2019-01-15T02:47:59.688Z,72.91
2019-01-15T02:49:09.789Z,72.62
2019-01-15T02:50:19.837Z,72.81
2019-01-15T02:51:29.881Z,72.72
2019-01-15T02:52:39.941Z,73
2019-01-15T02:53:49.994Z,72.44
2019-01-15T02:55:01.816Z,72.81
2019-01-15T02:56:11.875Z,72.49
2019-01-15T02:57:21.922Z,73.53
2019-01-15T02:58:31.981Z,74.28
2019-01-15T02:59:42.061Z,74.28
2019-01-15T03:00:52.203Z,74.47
2019-01-15T03:02:02.245Z,74.95
2019-01-15T03:03:12.302Z,74.66
2019-01-15T03:04:22.347Z,74.95
2019-01-15T03:05:32.396Z,74.57
2019-01-15T03:06:42.486Z,74.28
2019-01-15T03:07:52.551Z,74.85
2019-01-15T03:09:02.609Z,74.47
2019-01-15T03:10:12.657Z,74.51
2019-01-15T03:11:22.716Z,74.13
2019-01-15T03:12:32.814Z,73.57
2019-01-15T03:13:42.873Z,73.57
2019-01-15T03:14:52.915Z,72.53
2019-01-15T03:16:03.167Z,73
2019-01-15T03:17:13.239Z,72.91
2019-01-15T03:18:23.413Z,73
2019-01-15T03:19:33.464Z,73.1
2019-01-15T03:20:43.516Z,72.34
2019-01-15T03:21:53.568Z,72.44
2019-01-15T03:23:03.613Z,72.34
2019-01-15T03:24:13.754Z,72.72
2019-01-15T03:25:23.804Z,72.44
2019-01-15T03:26:33.876Z,73.19
2019-01-15T03:27:43.945Z,73.28
2019-01-15T03:28:53.998Z,73.1
2019-01-15T03:30:04.149Z,72.81
2019-01-15T03:31:14.217Z,72.53
2019-01-15T03:32:24.321Z,73
2019-01-15T03:33:34.376Z,72.44
2019-01-15T03:34:44.418Z,72.25
2019-01-15T03:35:54.497Z,73.19
2019-01-15T03:37:04.299Z,73.19
2019-01-15T03:38:14.347Z,72.62
2019-01-15T03:39:24.398Z,71.58
2019-01-15T03:40:34.454Z,72.25
2019-01-15T03:41:44.553Z,71.96
2019-01-15T03:43:02.884Z,71.4
2019-01-15T03:44:13.461Z,71.3
2019-01-15T03:45:23.515Z,71.58
2019-01-15T03:46:33.589Z,71.68
2019-01-15T03:47:43.773Z,71.4
2019-01-15T03:48:53.827Z,71.68
2019-01-15T03:50:03.875Z,71.58
2019-01-15T03:51:13.942Z,71.77
2019-01-15T03:52:24.014Z,71.58
2019-01-15T03:53:34.165Z,71.77
2019-01-15T03:54:44.218Z,70.64
2019-01-15T03:55:54.287Z,70.26
2019-01-15T03:57:04.333Z,70.54
2019-01-15T03:58:14.481Z,71.02
2019-01-15T03:59:24.532Z,71.58
2019-01-15T04:00:34.578Z,72.06
2019-01-15T04:01:44.626Z,72.62
2019-01-15T04:02:54.693Z,71.96
2019-01-15T04:04:04.736Z,72.15
2019-01-15T04:05:14.843Z,71.77
2019-01-15T04:06:24.886Z,72.06
2019-01-15T04:07:34.940Z,71.68
2019-01-15T04:08:44.984Z,72.62
2019-01-15T04:09:55.033Z,72.06
2019-01-15T04:11:05.107Z,72.4
2019-01-15T04:12:15.162Z,73.06
2019-01-15T04:13:24.957Z,73.53
2019-01-15T04:14:35.022Z,73.47
2019-01-15T04:15:45.083Z,73.66
2019-01-15T04:16:55.184Z,73.57
2019-01-15T04:18:05.251Z,73.38
2019-01-15T04:19:15.044Z,72.62
2019-01-15T04:20:25.090Z,72.25
2019-01-15T04:21:34.885Z,72.77
2019-01-15T04:22:44.941Z,72.49
2019-01-15T04:23:54.988Z,72.68
2019-01-15T04:25:05.039Z,72.77
2019-01-15T04:26:15.105Z,73.06
2019-01-15T04:27:25.154Z,73.72
2019-01-15T04:28:35.322Z,74.38
2019-01-15T04:29:45.384Z,74.38
2019-01-15T04:30:55.432Z,74.76
2019-01-15T04:32:05.484Z,75.42
2019-01-15T04:33:15.539Z,75.13
2019-01-15T04:34:25.698Z,74.85
2019-01-15T04:35:35.742Z,74.66
2019-01-15T04:36:45.790Z,74.47
2019-01-15T04:37:55.832Z,74.13
2019-01-15T04:39:05.899Z,74.47
2019-01-15T04:40:15.732Z,74.41
2019-01-15T04:41:25.789Z,74.66
2019-01-15T04:42:35.831Z,74.85
2019-01-15T04:43:45.908Z,74.79
2019-01-15T04:44:55.967Z,74.13
2019-01-15T04:46:06.147Z,74
2019-01-15T04:47:16.292Z,74.6
2019-01-15T04:48:26.340Z,74.04
2019-01-15T04:49:36.395Z,73.66
2019-01-15T04:50:46.449Z,73.66
2019-01-15T04:51:56.558Z,73.94
2019-01-15T04:53:06.620Z,73.38
2019-01-15T04:54:16.674Z,73.57
2019-01-15T04:55:26.772Z,73.38
2019-01-15T04:56:36.823Z,73.75
2019-01-15T04:57:46.974Z,74.32
2019-01-15T04:58:57.020Z,73.66
2019-01-15T05:00:07.072Z,74.13
2019-01-15T05:01:17.125Z,74.41
2019-01-15T05:02:27.173Z,73.57
2019-01-15T05:03:37.282Z,73
2019-01-15T05:04:47.329Z,73.1
2019-01-15T05:05:57.400Z,73.19
2019-01-15T05:07:07.450Z,72.91
2019-01-15T05:08:17.498Z,72.72
2019-01-15T05:09:27.653Z,71.96
2019-01-15T05:10:37.743Z,72.15
2019-01-15T05:11:47.537Z,71.49
2019-01-15T05:12:57.585Z,71.68
2019-01-15T05:14:07.385Z,71.87
2019-01-15T05:15:17.443Z,72.06
2019-01-15T05:16:27.501Z,71.87
2019-01-15T05:17:37.556Z,72.06
2019-01-15T05:18:47.683Z,71.68
2019-01-15T05:19:57.736Z,71.68
2019-01-15T05:21:07.923Z,71.68
2019-01-15T05:22:17.980Z,70.83
2019-01-15T05:23:28.043Z,71.3
2019-01-15T05:24:38.105Z,71.77
2019-01-15T05:25:47.896Z,71.77
2019-01-15T05:26:58.015Z,71.68
2019-01-15T05:28:08.073Z,71.87
2019-01-15T05:29:18.130Z,71.77
2019-01-15T05:30:28.182Z,71.58
2019-01-15T05:31:38.250Z,72.44
2019-01-15T05:32:48.358Z,72.25
2019-01-15T05:33:58.415Z,71.96
2019-01-15T05:35:08.478Z,72.81
2019-01-15T05:36:18.534Z,73
2019-01-15T05:37:28.592Z,72.72
2019-01-15T05:38:38.797Z,73.19
2019-01-15T05:39:48.850Z,72.62
2019-01-15T05:40:58.920Z,72.53
2019-01-15T05:42:08.970Z,72.44
2019-01-15T05:43:19.020Z,72.25
2019-01-15T05:44:29.123Z,72.53
2019-01-15T05:45:39.193Z,72.91
2019-01-15T05:46:49.243Z,72.62
2019-01-15T05:47:59.329Z,72.44
2019-01-15T05:49:09.428Z,73.19
2019-01-15T05:50:20.185Z,73
2019-01-15T05:51:30.243Z,72.62
2019-01-15T05:52:40.292Z,72.91
2019-01-15T05:53:50.348Z,73.1
2019-01-15T05:55:00.402Z,73
2019-01-15T05:56:12.079Z,72.72
2019-01-15T05:57:22.139Z,72.44
2019-01-15T05:58:32.242Z,72.44
2019-01-15T05:59:42.287Z,72.62
2019-01-15T06:00:52.336Z,73
2019-01-15T06:02:02.483Z,72.72
2019-01-15T06:03:12.530Z,71.96
2019-01-15T06:04:22.580Z,72.06
2019-01-15T06:05:32.369Z,71.96
2019-01-15T06:06:42.447Z,71.4
2019-01-15T06:07:52.591Z,71.68
2019-01-15T06:09:02.638Z,71.68
2019-01-15T06:10:12.684Z,71.72
2019-01-15T06:11:22.726Z,71.4
2019-01-15T06:12:32.774Z,71.43
2019-01-15T06:13:45.312Z,71.4
2019-01-15T06:14:55.092Z,71.72
2019-01-15T06:16:05.151Z,71.43
2019-01-15T06:17:15.191Z,71.72
2019-01-15T06:18:25.239Z,72
2019-01-15T06:19:35.382Z,71.68
2019-01-15T06:20:45.425Z,72.15
2019-01-15T06:21:55.468Z,71.72
2019-01-15T06:23:05.512Z,71.77
2019-01-15T06:24:15.558Z,72.06
2019-01-15T06:25:25.602Z,71.96
2019-01-15T06:26:35.653Z,71.77
2019-01-15T06:27:45.700Z,72.15
2019-01-15T06:28:55.749Z,72.62
2019-01-15T06:30:05.540Z,72.81
2019-01-15T06:31:15.684Z,73
2019-01-15T06:32:25.726Z,72.62
2019-01-15T06:33:35.773Z,72.44
2019-01-15T06:34:45.820Z,72.91
2019-01-15T06:35:55.873Z,72.53
2019-01-15T06:37:05.989Z,72.72
2019-01-15T06:38:16.046Z,72.53
2019-01-15T06:39:26.091Z,72.53
2019-01-15T06:40:36.136Z,72.72
2019-01-15T06:41:46.186Z,72.44
2019-01-15T06:42:56.333Z,72.85
2019-01-15T06:44:06.782Z,72.72
2019-01-15T06:45:16.827Z,72.75
2019-01-15T06:46:26.874Z,72.06
2019-01-15T06:47:36.924Z,72.28
2019-01-15T06:48:47.028Z,72.72
2019-01-15T06:49:57.076Z,72.38
2019-01-15T06:51:07.126Z,72.47
2019-01-15T06:52:17.175Z,72.85
2019-01-15T06:53:27.227Z,72.66
2019-01-15T06:54:37.327Z,72.85
2019-01-15T06:55:47.384Z,72.85
2019-01-15T06:56:57.431Z,72.66
2019-01-15T06:58:07.499Z,72.85
2019-01-15T06:59:17.607Z,72.75
2019-01-15T07:00:27.729Z,72
2019-01-15T07:01:37.848Z,71.62
2019-01-15T07:02:47.632Z,71.15
2019-01-15T07:03:57.734Z,72.09
2019-01-15T07:05:07.784Z,71.62
2019-01-15T07:06:19.552Z,72.09
2019-01-15T07:07:29.601Z,72.66
2019-01-15T07:08:39.651Z,71.81
2019-01-15T07:09:49.698Z,72.09
2019-01-15T07:10:59.750Z,71.81
2019-01-15T07:12:09.900Z,72.75
2019-01-15T07:13:19.945Z,72.66
2019-01-15T07:14:29.996Z,72.75
2019-01-15T07:15:40.042Z,72.66
2019-01-15T07:16:50.101Z,73.03
2019-01-15T07:18:00.199Z,73.03
2019-01-15T07:19:10.256Z,72.66
2019-01-15T07:20:20.306Z,72.85
2019-01-15T07:21:30.352Z,72.94
2019-01-15T07:22:40.400Z,72.66
2019-01-15T07:23:50.603Z,72.85
2019-01-15T07:25:00.646Z,73.03
2019-01-15T07:26:10.692Z,72.75
2019-01-15T07:27:20.753Z,72.75
2019-01-15T07:28:30.799Z,72.75
2019-01-15T07:29:40.993Z,72.56
2019-01-15T07:30:51.040Z,72.85
2019-01-15T07:32:01.086Z,72
2019-01-15T07:33:11.130Z,72.09
2019-01-15T07:34:21.184Z,71.72
2019-01-15T07:35:31.328Z,72
2019-01-15T07:36:41.370Z,72
2019-01-15T07:37:51.411Z,72.09
2019-01-15T07:39:01.451Z,71.91
2019-01-15T07:40:11.492Z,72
2019-01-15T07:41:21.692Z,72.09
2019-01-15T07:42:31.747Z,72
2019-01-15T07:43:41.787Z,71.91
2019-01-15T07:44:51.830Z,71.62
2019-01-15T07:46:01.883Z,71.81
2019-01-15T07:47:12.079Z,71.62
2019-01-15T07:48:22.129Z,72
2019-01-15T07:49:31.919Z,71.81
2019-01-15T07:50:41.967Z,71.62
2019-01-15T07:51:52.010Z,72.47
2019-01-15T07:53:02.210Z,72.94
2019-01-15T07:54:11.992Z,72.47
2019-01-15T07:55:22.034Z,73.32
2019-01-15T07:56:32.078Z,72.75
2019-01-15T07:57:42.121Z,72.47
2019-01-15T07:58:52.219Z,72.94
2019-01-15T08:00:02.011Z,73.03
2019-01-15T08:01:12.063Z,72.47
2019-01-15T08:02:22.124Z,73.13
2019-01-15T08:03:32.177Z,72.47
2019-01-15T08:04:42.275Z,73.41
2019-01-15T08:05:52.331Z,73.51
2019-01-15T08:07:02.376Z,73.69
2019-01-15T08:08:12.436Z,73.69
2019-01-15T08:09:22.475Z,73.41
2019-01-15T08:10:32.677Z,73.79
2019-01-15T08:11:42.726Z,73.41
2019-01-15T08:12:52.771Z,73.88
2019-01-15T08:14:02.813Z,73.41
2019-01-15T08:15:19.548Z,73.41
2019-01-15T08:16:29.684Z,73.79
2019-01-15T08:17:39.729Z,73.69
2019-01-15T08:18:49.792Z,73.51
2019-01-15T08:19:59.842Z,73.51
2019-01-15T08:21:09.888Z,73.51
2019-01-15T08:22:20.037Z,73.69
2019-01-15T08:23:30.079Z,74.26
2019-01-15T08:24:40.125Z,74.64
2019-01-15T08:25:50.175Z,75.4
2019-01-15T08:27:00.221Z,75.49
2019-01-15T08:28:10.316Z,75.11
2019-01-15T08:29:20.361Z,75.4
2019-01-15T08:30:30.406Z,75.59
2019-01-15T08:31:40.455Z,76.06
2019-01-15T08:32:50.502Z,77.09
2019-01-15T08:34:00.598Z,77.09
2019-01-15T08:35:10.658Z,77.09
2019-01-15T08:36:20.704Z,77.47
2019-01-15T08:37:31.566Z,77.85
2019-01-15T08:38:41.612Z,78.89
2019-01-15T08:39:51.711Z,79.64
2019-01-15T08:41:01.555Z,80.3
2019-01-15T08:42:11.615Z,80.3
2019-01-15T08:43:21.664Z,80.77
2019-01-15T08:44:31.706Z,80.87
2019-01-15T08:45:41.901Z,82.19
2019-01-15T08:46:51.947Z,83.42
2019-01-15T08:48:01.990Z,85.59
2019-01-15T08:49:12.034Z,87.19
2019-01-15T08:50:22.079Z,89.36
2019-01-15T08:51:32.273Z,91.44
2019-01-15T08:52:42.323Z,92.85
2019-01-15T08:53:52.380Z,94.55
2019-01-15T08:55:02.427Z,95.5
2019-01-15T08:56:12.477Z,96.34
2019-01-15T08:57:22.622Z,97.43
2019-01-15T08:58:32.669Z,99.51
2019-01-15T08:59:42.685Z,99.99
2019-01-15T09:00:52.671Z,99.99
2019-01-15T09:02:02.594Z,99.99
2019-01-15T09:03:12.669Z,99.99
2019-01-15T09:04:22.579Z,99.99
2019-01-15T09:05:32.536Z,99.99
2019-01-15T09:06:42.560Z,99.99
2019-01-15T09:07:52.494Z,99.99
2019-01-15T09:09:02.554Z,99.99
2019-01-15T09:10:12.462Z,99.99
2019-01-15T09:11:22.369Z,99.99
2019-01-15T09:12:33.493Z,99.99
2019-01-15T09:13:43.507Z,99.99
2019-01-15T09:14:53.436Z,99.99
2019-01-15T09:16:04.138Z,99.99
2019-01-15T09:17:14.064Z,99.99
2019-01-15T09:18:24.174Z,99.99
2019-01-15T09:19:34.112Z,99.99
2019-01-15T09:20:44.073Z,99.99
2019-01-15T09:21:54.011Z,99.99
2019-01-15T09:23:03.998Z,99.99
2019-01-15T09:24:13.976Z,99.99
2019-01-15T09:25:23.887Z,99.99
2019-01-15T09:26:33.932Z,99.99
2019-01-15T09:27:43.876Z,99.99
2019-01-15T09:28:53.912Z,99.99
2019-01-15T09:30:03.846Z,99.99
2019-01-15T09:31:13.758Z,99.99
2019-01-15T09:32:24.913Z,99.99
2019-01-15T09:33:34.825Z,99.99
2019-01-15T09:34:44.734Z,99.99
2019-01-15T09:35:54.653Z,99.99
2019-01-15T09:37:04.811Z,99.99
2019-01-15T09:38:14.832Z,99.99
2019-01-15T09:39:24.740Z,99.99
2019-01-15T09:40:34.707Z,99.99
2019-01-15T09:41:44.622Z,99.99
2019-01-15T09:42:54.592Z,99.99
2019-01-15T09:44:04.567Z,99.99
2019-01-15T09:45:14.481Z,99.99
2019-01-15T09:46:24.392Z,99.99
2019-01-15T09:47:34.304Z,99.99
2019-01-15T09:48:44.265Z,99.99
2019-01-15T09:49:53.924Z,99.99
2019-01-15T09:51:03.831Z,99.99
2019-01-15T09:52:24.123Z,99.99
2019-01-15T09:53:33.859Z,99.99
2019-01-15T09:54:43.766Z,99.99
2019-01-15T09:55:53.777Z,99.99
2019-01-15T09:57:03.695Z,99.99
2019-01-15T09:58:13.612Z,99.99
2019-01-15T09:59:23.535Z,99.99
2019-01-15T10:00:33.452Z,99.99
2019-01-15T10:01:43.466Z,99.99
2019-01-15T10:02:53.375Z,99.99
2019-01-15T10:04:03.286Z,99.99
2019-01-15T10:05:13.197Z,99.99
2019-01-15T10:06:23.118Z,99.99
2019-01-15T10:07:33.027Z,99.99
2019-01-15T10:08:42.973Z,99.99
2019-01-15T10:09:52.891Z,99.99
2019-01-15T10:11:02.805Z,99.99
2019-01-15T10:12:12.466Z,99.99
2019-01-15T10:13:22.374Z,99.99
2019-01-15T10:14:32.284Z,99.65
2019-01-15T10:15:48.756Z,99.74
2019-01-15T10:16:58.667Z,99.84
2019-01-15T10:18:08.605Z,99.93
2019-01-15T10:19:18.522Z,99.74
2019-01-15T10:20:28.445Z,99.99
2019-01-15T10:21:39.815Z,99.99
2019-01-15T10:22:49.814Z,99.84
2019-01-15T10:23:59.722Z,99.37
2019-01-15T10:25:09.633Z,99.18
2019-01-15T10:26:19.549Z,98.8
2019-01-15T10:27:29.463Z,98.99
2019-01-15T10:28:39.126Z,98.99
2019-01-15T10:29:49.045Z,98.61
2019-01-15T10:31:04.526Z,98.8
2019-01-15T10:32:14.445Z,99.37
2019-01-15T10:33:24.364Z,99.27
2019-01-15T10:34:34.279Z,99.99
2019-01-15T10:35:44.194Z,99.84
2019-01-15T10:36:54.104Z,99.18
2019-01-15T10:38:04.014Z,98.99
2019-01-15T10:39:13.926Z,99.04
2019-01-15T10:40:23.837Z,99.51
2019-01-15T10:41:33.922Z,99.79
2019-01-15T10:42:43.932Z,99.74
2019-01-15T10:43:53.843Z,99.99
2019-01-15T10:45:03.761Z,99.99
2019-01-15T10:46:13.677Z,99.99
2019-01-15T10:47:26.586Z,99.99
2019-01-15T10:48:36.616Z,99.99
2019-01-15T10:49:46.598Z,99.99
2019-01-15T10:50:56.516Z,99.99
2019-01-15T10:52:06.427Z,99.99
2019-01-15T10:53:16.401Z,99.99
2019-01-15T10:54:26.431Z,99.99
2019-01-15T10:55:36.343Z,99.99
2019-01-15T10:56:46.256Z,99.99
2019-01-15T10:57:56.165Z,99.99
2019-01-15T10:59:06.110Z,99.99
2019-01-15T11:00:16.030Z,99.99
2019-01-15T11:01:25.949Z,99.99
2019-01-15T11:02:35.860Z,99.99
2019-01-15T11:03:45.784Z,99.99
2019-01-15T11:04:55.450Z,99.99
2019-01-15T11:06:05.383Z,99.99
2019-01-15T11:07:15.043Z,99.99
2019-01-15T11:08:24.955Z,99.99
2019-01-15T11:09:34.866Z,99.99
2019-01-15T11:10:44.776Z,99.99
2019-01-15T11:11:54.839Z,99.99
2019-01-15T11:13:04.761Z,99.99
2019-01-15T11:14:14.673Z,99.99
2019-01-15T11:15:24.583Z,99.99
2019-01-15T11:16:34.494Z,99.99
2019-01-15T11:17:44.456Z,99.99
2019-01-15T11:18:54.372Z,99.99
2019-01-15T11:20:04.298Z,99.99
2019-01-15T11:21:14.208Z,99.99
2019-01-15T11:22:24.136Z,99.99
2019-01-15T11:23:33.951Z,99.99
2019-01-15T11:24:43.866Z,99.99
2019-01-15T11:25:53.777Z,99.99
2019-01-15T11:27:03.692Z,99.99
2019-01-15T11:28:13.615Z,99.99
2019-01-15T11:29:23.616Z,99.99
2019-01-15T11:30:33.526Z,99.99
2019-01-15T11:31:43.455Z,99.99
2019-01-15T11:32:53.372Z,99.99
2019-01-15T11:34:03.289Z,99.99
2019-01-15T11:35:13.373Z,99.99
2019-01-15T11:36:23.300Z,99.99
2019-01-15T11:37:33.224Z,99.99
2019-01-15T11:38:43.150Z,99.99
2019-01-15T11:39:53.067Z,99.99
2019-01-15T11:41:02.981Z,99.99
2019-01-15T11:42:12.897Z,99.99
2019-01-15T11:43:22.807Z,99.99
2019-01-15T11:44:32.721Z,99.99
2019-01-15T11:45:42.640Z,99.99
2019-01-15T11:46:52.577Z,99.99
2019-01-15T11:48:02.489Z,99.99
2019-01-15T11:49:12.418Z,99.94
2019-01-15T11:50:22.334Z,99.99
2019-01-15T11:51:32.249Z,99.94
2019-01-15T11:52:42.215Z,99.99
2019-01-15T11:53:52.130Z,99.46
2019-01-15T11:55:02.046Z,99.08
2019-01-15T11:56:11.965Z,98.9
2019-01-15T11:57:21.885Z,98.99
2019-01-15T11:58:31.947Z,97.86
2019-01-15T11:59:41.863Z,97.1
2019-01-15T12:00:51.789Z,97.1
2019-01-15T12:02:01.703Z,96.73
2019-01-15T12:03:11.625Z,96.82
2019-01-15T12:04:21.684Z,96.16
2019-01-15T12:05:31.596Z,95.59
2019-01-15T12:06:41.516Z,96.16
2019-01-15T12:07:51.450Z,96.54
2019-01-15T12:09:01.362Z,96.35
2019-01-15T12:10:11.278Z,96.25
2019-01-15T12:11:21.194Z,96.01
2019-01-15T12:12:31.105Z,96.3
2019-01-15T12:13:41.019Z,96.77
2019-01-15T12:14:50.951Z,96.44
2019-01-15T12:16:01.075Z,96.25
2019-01-15T12:17:11.042Z,96.63
2019-01-15T12:18:20.968Z,96.44
2019-01-15T12:19:30.879Z,97.01
2019-01-15T12:20:40.796Z,96.91
2019-01-15T12:21:50.708Z,97.48
2019-01-15T12:23:00.623Z,97.43
2019-01-15T12:24:10.538Z,97.48
2019-01-15T12:25:20.454Z,97.72
2019-01-15T12:26:30.372Z,98.47
2019-01-15T12:27:40.444Z,98.94
2019-01-15T12:28:50.368Z,98.85
2019-01-15T12:30:00.284Z,98.94
2019-01-15T12:31:10.205Z,99.51
2019-01-15T12:32:20.117Z,99.51
2019-01-15T12:33:30.181Z,99.99
2019-01-15T12:34:40.095Z,99.79
2019-01-15T12:35:50.011Z,99.88
2019-01-15T12:36:59.928Z,99.99
2019-01-15T12:38:09.840Z,99.99
2019-01-15T12:39:19.756Z,99.51
2019-01-15T12:40:29.669Z,98.75
2019-01-15T12:41:39.585Z,99.22
2019-01-15T12:42:49.535Z,98.94
2019-01-15T12:43:59.447Z,99.04
2019-01-15T12:45:09.369Z,98.85
2019-01-15T12:46:25.760Z,98.94
2019-01-15T12:47:35.673Z,99.22
2019-01-15T12:48:45.351Z,98.75
2019-01-15T12:49:55.269Z,98.9
2019-01-15T12:51:05.335Z,98.14
2019-01-15T12:52:15.254Z,97.96
2019-01-15T12:53:25.169Z,97.67
2019-01-15T12:54:35.087Z,97.86
2019-01-15T12:55:45.004Z,97.39
2019-01-15T12:56:54.929Z,96.91
2019-01-15T12:58:06.339Z,97.1
2019-01-15T12:59:16.264Z,97.58
2019-01-15T13:00:26.177Z,97.1
2019-01-15T13:01:36.098Z,97.2
2019-01-15T13:02:46.066Z,96.63
2019-01-15T13:03:55.988Z,96.63
2019-01-15T13:05:05.908Z,96.44
2019-01-15T13:06:15.823Z,95.87
2019-01-15T13:07:25.774Z,96.16
2019-01-15T13:08:35.741Z,96.06
2019-01-15T13:09:45.670Z,96.35
2019-01-15T13:10:55.598Z,96.91
2019-01-15T13:12:05.552Z,96.25
2019-01-15T13:13:15.472Z,96.06
2019-01-15T13:14:25.486Z,95.97
2019-01-15T13:15:37.316Z,95.4
2019-01-15T13:16:47.239Z,95.87
2019-01-15T13:17:57.216Z,95.5
2019-01-15T13:19:07.134Z,95.59
2019-01-15T13:20:17.098Z,95.4
2019-01-15T13:21:27.016Z,95.59
2019-01-15T13:22:36.930Z,95.68
2019-01-15T13:23:46.847Z,95.68
2019-01-15T13:24:56.764Z,95.59
2019-01-15T13:26:06.782Z,95.45
2019-01-15T13:27:16.694Z,95.07
2019-01-15T13:28:26.613Z,94.98
2019-01-15T13:29:36.273Z,94.79
2019-01-15T13:30:46.183Z,94.89
2019-01-15T13:31:56.094Z,94.98
2019-01-15T13:33:06.013Z,94.98
2019-01-15T13:34:15.927Z,94.89
2019-01-15T13:35:25.841Z,94.89
2019-01-15T13:36:35.768Z,94.89
2019-01-15T13:37:45.779Z,94.98
2019-01-15T13:38:55.694Z,95.17
2019-01-15T13:40:05.354Z,94.6
2019-01-15T13:41:15.019Z,94.89
2019-01-15T13:42:24.737Z,95.07
2019-01-15T13:43:34.802Z,95.17
2019-01-15T13:44:44.713Z,94.89
2019-01-15T13:46:00.667Z,94.6
2019-01-15T13:47:10.695Z,95.26
2019-01-15T13:48:20.609Z,95.26
2019-01-15T13:49:30.579Z,95.45
2019-01-15T13:50:40.495Z,95.36
2019-01-15T13:51:50.415Z,95.26
2019-01-15T13:53:00.338Z,95.64
2019-01-15T13:54:10.253Z,95.83
2019-01-15T13:55:19.962Z,95.54
2019-01-15T13:56:30.926Z,96.2
2019-01-15T13:57:40.585Z,96.49
2019-01-15T13:58:50.495Z,96.58
2019-01-15T14:00:00.453Z,95.83
2019-01-15T14:01:10.181Z,95.83
2019-01-15T14:02:20.095Z,95.54
2019-01-15T14:03:30.015Z,95.17
2019-01-15T14:04:39.686Z,95.36
2019-01-15T14:05:49.600Z,95.17
2019-01-15T14:07:01.720Z,95.07
2019-01-15T14:08:11.389Z,95.26
2019-01-15T14:09:21.303Z,95.64
2019-01-15T14:10:31.217Z,95.64
2019-01-15T14:11:41.139Z,96.39
2019-01-15T14:12:51.105Z,96.49
2019-01-15T14:14:01.026Z,97.53
2019-01-15T14:15:10.940Z,98
2019-01-15T14:16:20.860Z,98.57
2019-01-15T14:17:30.782Z,99.88
2019-01-15T14:18:40.844Z,99.99
2019-01-15T14:19:50.761Z,99.99
2019-01-15T14:21:00.687Z,99.99
2019-01-15T14:22:10.617Z,99.99
2019-01-15T14:23:20.536Z,99.99
2019-01-15T14:24:32.228Z,99.99
2019-01-15T14:25:42.147Z,99.99
2019-01-15T14:26:52.060Z,99.99
2019-01-15T14:28:01.982Z,99.99
2019-01-15T14:29:11.902Z,99.99
2019-01-15T14:30:21.973Z,99.99
2019-01-15T14:31:31.890Z,99.99
2019-01-15T14:32:41.801Z,99.99
2019-01-15T14:33:51.713Z,99.99
2019-01-15T14:35:01.645Z,99.99
2019-01-15T14:36:11.617Z,99.99
2019-01-15T14:37:21.528Z,99.99
2019-01-15T14:38:33.128Z,99.99
2019-01-15T14:39:43.046Z,99.99
2019-01-15T14:40:52.962Z,99.99
2019-01-15T14:42:02.926Z,99.99
2019-01-15T14:43:12.843Z,99.99
2019-01-15T14:44:22.758Z,99.99
2019-01-15T14:45:32.700Z,99.99
2019-01-15T14:46:42.619Z,99.99
2019-01-15T14:47:52.686Z,99.99
2019-01-15T14:49:02.607Z,99.99
2019-01-15T14:50:12.276Z,99.99
2019-01-15T14:51:22.191Z,99.99
2019-01-15T14:52:32.109Z,99.99
2019-01-15T14:53:42.806Z,99.99
2019-01-15T14:54:52.468Z,99.99
2019-01-15T14:56:02.387Z,99.99
2019-01-15T14:57:12.333Z,99.99
2019-01-15T14:58:22.265Z,99.99
2019-01-15T14:59:32.285Z,99.99
2019-01-15T15:00:42.198Z,99.99
2019-01-15T15:01:52.123Z,99.99
2019-01-15T15:03:02.041Z,99.99
2019-01-15T15:04:11.959Z,99.99
2019-01-15T15:05:21.927Z,99.99
2019-01-15T15:06:31.844Z,99.99
2019-01-15T15:07:41.860Z,99.99